Time;durP1;ratioP1;P1;durP2;ratioP2;P2;SDS_P1;SDS_P2;PMS_P1;PMS_P2;Temp;Humidity;BMP_temperature;BMP_pressure;BME280_temperature;BME280_humidity;BME280_pressure;Samples;Min_cycle;Max_cycle;Signal;HPM_P1;HPM_P2
2021/09/04 00:01:53;;;;;;;5.90;4.43;;;;;;;16.06;47.43;94075.38;4978884;28;20121;-78
2021/09/04 00:04:25;;;;;;;5.22;4.55;;;;;;;16.10;47.32;94076.25;4979639;28;20053;-79
2021/09/04 00:06:50;;;;;;;4.97;4.15;;;;;;;15.90;47.70;94066.47;4977682;28;20042;-78
2021/09/04 00:09:16;;;;;;;6.88;4.35;;;;;;;15.82;47.61;94054.78;4975911;28;20270;-79
2021/09/04 00:11:41;;;;;;;5.25;4.43;;;;;;;15.87;48.01;94080.56;4975925;28;20850;-78
2021/09/04 00:14:07;;;;;;;8.90;4.80;;;;;;;15.86;47.65;94093.19;4977700;28;20455;-77
2021/09/04 00:16:32;;;;;;;10.32;4.97;;;;;;;15.92;47.78;94092.97;4974865;28;20038;-77
2021/09/04 00:18:58;;;;;;;5.25;4.75;;;;;;;15.88;48.15;94084.81;4979128;28;20105;-78
2021/09/04 00:21:23;;;;;;;5.18;4.68;;;;;;;15.88;47.90;94082.13;4979268;28;20034;-77
2021/09/04 00:23:48;;;;;;;5.28;3.90;;;;;;;15.78;47.82;94091.44;4976115;28;20073;-77
2021/09/04 00:26:14;;;;;;;6.53;4.30;;;;;;;15.72;48.02;94092.00;4977491;28;20073;-78
2021/09/04 00:28:39;;;;;;;5.80;4.25;;;;;;;15.55;48.19;94078.84;4979574;28;20166;-77
2021/09/04 00:31:05;;;;;;;5.03;4.43;;;;;;;15.65;47.91;94091.78;4978380;28;20035;-76
2021/09/04 00:33:30;;;;;;;5.65;4.82;;;;;;;15.52;48.41;94087.56;4979293;28;20616;-79
2021/09/04 00:35:55;;;;;;;7.25;5.07;;;;;;;15.67;48.01;94089.53;4986932;28;20673;-78
2021/09/04 00:38:21;;;;;;;7.03;4.57;;;;;;;15.55;48.02;94065.47;4974466;28;20448;-78
2021/09/04 00:40:46;;;;;;;6.20;4.97;;;;;;;15.63;48.12;94091.34;4978092;28;20034;-77
2021/09/04 00:43:12;;;;;;;5.55;4.80;;;;;;;15.64;47.81;94090.22;4974717;28;20616;-78
2021/09/04 00:45:37;;;;;;;5.25;4.75;;;;;;;15.61;48.11;94090.88;4978697;28;20041;-78
2021/09/04 00:48:04;;;;;;;6.88;4.85;;;;;;;15.54;48.26;94080.75;4978084;28;20047;-77
2021/09/04 00:50:32;;;;;;;6.07;4.68;;;;;;;15.43;48.77;94084.97;4977350;28;20026;-79
2021/09/04 00:52:59;;;;;;;8.07;4.82;;;;;;;15.43;48.83;94080.41;4978204;28;20053;-78
2021/09/04 00:55:25;;;;;;;7.43;5.55;;;;;;;15.26;49.10;94079.81;4974840;28;20129;-77
2021/09/04 00:57:51;;;;;;;8.82;4.75;;;;;;;15.25;48.76;94076.41;4975397;28;20050;-78
2021/09/04 01:00:17;;;;;;;6.68;5.07;;;;;;;15.29;48.93;94074.59;4975190;28;20038;-77
2021/09/04 01:02:43;;;;;;;9.13;5.32;;;;;;;15.30;48.75;94065.44;4976757;28;20038;-78
2021/09/04 01:05:08;;;;;;;9.07;5.47;;;;;;;15.23;49.24;94054.50;4974743;28;20034;-77
2021/09/04 01:07:36;;;;;;;6.80;5.20;;;;;;;15.29;49.13;94058.53;4995997;28;20030;-76
2021/09/04 01:10:02;;;;;;;7.93;4.60;;;;;;;15.11;49.11;94046.47;4977550;28;20842;-78
2021/09/04 01:12:28;;;;;;;6.97;5.05;;;;;;;15.14;49.40;94056.53;4978177;28;20159;-79
2021/09/04 01:14:53;;;;;;;8.43;5.18;;;;;;;15.28;48.79;94059.63;4974600;28;20386;-77
2021/09/04 01:17:19;;;;;;;7.68;4.88;;;;;;;15.24;49.39;94061.44;4976868;28;20144;-76
2021/09/04 01:19:44;;;;;;;9.02;5.25;;;;;;;15.18;49.46;94046.69;4976826;28;20479;-78
2021/09/04 01:22:09;;;;;;;5.03;4.53;;;;;;;15.05;49.38;94037.09;4975329;28;20026;-78
2021/09/04 01:24:35;;;;;;;6.00;5.13;;;;;;;15.10;49.11;94039.56;4979457;28;20038;-80
2021/09/04 01:27:00;;;;;;;7.10;5.05;;;;;;;15.18;49.33;94049.38;4975375;28;20046;-77
2021/09/04 01:29:26;;;;;;;6.07;4.80;;;;;;;14.89;49.49;94001.38;4978293;28;20034;-78
2021/09/04 01:31:51;;;;;;;5.97;5.38;;;;;;;14.96;49.92;94036.44;4973672;28;20026;-78
2021/09/04 01:34:17;;;;;;;9.07;5.55;;;;;;;15.03;49.91;94039.31;4977976;28;20393;-78
2021/09/04 01:36:42;;;;;;;6.38;4.90;;;;;;;14.91;49.73;94024.03;4977294;28;20424;-78
2021/09/04 01:39:09;;;;;;;5.97;5.13;;;;;;;14.98;49.22;94020.81;4971151;28;20394;-78
2021/09/04 01:41:37;;;;;;;6.65;4.82;;;;;;;14.97;49.49;94025.38;4976875;28;20141;-77
2021/09/04 01:44:04;;;;;;;6.05;5.45;;;;;;;15.04;49.69;94024.81;4976909;28;20038;-77
2021/09/04 01:46:30;;;;;;;8.63;4.97;;;;;;;14.98;49.48;94028.84;4974959;28;20545;-77
2021/09/04 01:48:57;;;;;;;7.72;5.22;;;;;;;14.85;49.56;94021.91;4974535;28;20129;-78
2021/09/04 01:51:24;;;;;;;6.28;4.95;;;;;;;14.75;49.85;94039.22;4969652;28;20416;-78
2021/09/04 01:53:49;;;;;;;5.20;4.53;;;;;;;14.72;49.83;94036.41;4972503;28;20045;-77
2021/09/04 01:56:15;;;;;;;8.00;5.57;;;;;;;14.64;49.78;94011.31;4979190;28;20027;-78
2021/09/04 01:58:40;;;;;;;6.10;5.10;;;;;;;14.78;49.74;94027.03;4972567;28;20018;-77
2021/09/04 02:01:07;;;;;;;6.82;5.50;;;;;;;14.70;49.83;94023.38;4971691;28;20077;-77
2021/09/04 02:03:33;;;;;;;6.97;5.13;;;;;;;14.84;49.51;94037.22;4977751;28;20038;-79
2021/09/04 02:05:59;;;;;;;6.10;5.50;;;;;;;14.77;49.83;94036.19;4974848;28;20049;-77
2021/09/04 02:08:24;;;;;;;6.53;5.30;;;;;;;14.83;49.46;94034.84;4970971;28;20395;-77
2021/09/04 02:10:49;;;;;;;7.28;6.07;;;;;;;14.78;49.65;94016.31;4976767;28;20058;-77
2021/09/04 02:13:15;;;;;;;5.43;4.88;;;;;;;14.77;49.73;94015.53;4976367;28;20489;-77
2021/09/04 02:15:40;;;;;;;6.63;4.60;;;;;;;14.71;50.06;94016.91;4972446;28;21067;-77
2021/09/04 02:18:06;;;;;;;5.65;5.05;;;;;;;14.76;50.23;94018.56;4978666;28;20477;-78
2021/09/04 02:20:31;;;;;;;5.63;4.88;;;;;;;14.63;49.92;94014.31;4972590;28;20034;-77
2021/09/04 02:22:56;;;;;;;5.47;4.97;;;;;;;14.60;50.21;94021.13;4976397;28;20140;-79
2021/09/04 02:25:22;;;;;;;5.75;4.95;;;;;;;14.46;50.73;94021.41;4978703;28;20034;-77
2021/09/04 02:27:47;;;;;;;4.88;4.43;;;;;;;14.44;50.90;94010.25;4986725;28;20101;-77
2021/09/04 02:30:13;;;;;;;6.57;5.32;;;;;;;14.49;50.90;94020.72;4976940;28;20937;-77
2021/09/04 02:32:38;;;;;;;9.63;4.88;;;;;;;14.44;50.56;93996.88;4974134;28;20054;-79
2021/09/04 02:35:05;;;;;;;6.28;5.57;;;;;;;14.49;50.48;93993.97;4973426;28;20033;-78
2021/09/04 02:37:30;;;;;;;5.38;4.35;;;;;;;14.54;50.41;93999.13;4974250;28;20591;-79
2021/09/04 02:39:56;;;;;;;5.57;4.95;;;;;;;14.43;50.80;93984.59;4975919;28;20140;-76
2021/09/04 02:42:21;;;;;;;6.05;5.20;;;;;;;14.45;51.20;94003.78;4974939;28;20125;-78
2021/09/04 02:44:47;;;;;;;6.00;5.40;;;;;;;14.29;51.02;93973.44;4973843;28;20512;-77
2021/09/04 02:47:12;;;;;;;9.27;5.05;;;;;;;14.36;50.62;93979.03;4977224;28;20106;-77
2021/09/04 02:49:38;;;;;;;5.40;4.90;;;;;;;14.46;50.56;93996.53;4971292;28;20026;-78
2021/09/04 02:52:03;;;;;;;7.05;4.43;;;;;;;14.57;50.49;94001.13;4972661;28;20038;-77
2021/09/04 02:54:29;;;;;;;7.38;4.80;;;;;;;14.25;50.66;93977.09;4972288;28;20109;-76
2021/09/04 02:56:55;;;;;;;6.05;5.05;;;;;;;14.08;51.23;93978.06;4979459;28;20046;-77
2021/09/04 02:59:20;;;;;;;7.40;6.03;;;;;;;14.20;51.59;93994.13;4974367;28;20034;-76
2021/09/04 03:01:46;;;;;;;8.23;5.88;;;;;;;14.22;51.45;93997.28;4977545;28;20088;-77
2021/09/04 03:04:11;;;;;;;9.80;6.43;;;;;;;13.89;52.15;93985.78;4974363;28;20045;-79
2021/09/04 03:06:36;;;;;;;6.40;5.70;;;;;;;13.91;52.62;94015.66;4977277;28;20049;-77
2021/09/04 03:09:02;;;;;;;7.90;5.30;;;;;;;13.96;52.12;94007.44;4974695;28;20061;-77
2021/09/04 03:11:27;;;;;;;8.13;5.35;;;;;;;13.76;52.95;94003.69;4974583;28;20505;-77
2021/09/04 03:13:53;;;;;;;7.00;5.90;;;;;;;13.93;52.14;93997.41;4975649;28;20023;-78
2021/09/04 03:16:18;;;;;;;6.95;5.32;;;;;;;13.95;52.01;93997.84;4976118;28;20558;-79
2021/09/04 03:18:44;;;;;;;6.88;5.45;;;;;;;13.89;52.54;93996.47;4975141;28;20051;-77
2021/09/04 03:21:10;;;;;;;5.70;5.15;;;;;;;13.93;52.28;94002.75;4968050;28;20030;-77
2021/09/04 03:23:35;;;;;;;5.80;5.25;;;;;;;13.90;52.44;93987.34;4977242;28;20126;-77
2021/09/04 03:26:01;;;;;;;6.00;5.38;;;;;;;13.80;51.93;93966.38;4974688;28;20480;-77
2021/09/04 03:28:26;;;;;;;6.70;6.05;;;;;;;13.73;52.17;93961.59;4975227;28;20035;-77
2021/09/04 03:30:55;;;;;;;11.68;6.50;;;;;;;14.07;52.05;93995.22;4974538;28;20037;-76
2021/09/04 03:33:21;;;;;;;7.43;5.82;;;;;;;14.06;51.65;93997.13;4975601;28;20074;-79
2021/09/04 03:35:46;;;;;;;6.90;6.00;;;;;;;13.72;52.32;93979.50;4972119;28;20589;-77
2021/09/04 03:38:11;;;;;;;8.15;5.40;;;;;;;13.85;52.40;94014.28;4970912;28;20040;-78
2021/09/04 03:40:37;;;;;;;6.82;5.95;;;;;;;13.86;52.28;94007.84;4974685;28;20650;-77
2021/09/04 03:43:02;;;;;;;8.15;5.95;;;;;;;13.88;52.24;94000.28;4969181;28;20042;-77
2021/09/04 03:45:28;;;;;;;7.43;5.53;;;;;;;13.85;52.74;94006.28;4974127;28;20049;-80
2021/09/04 03:47:53;;;;;;;6.53;5.68;;;;;;;13.81;52.33;94010.72;4973313;28;20565;-80
2021/09/04 03:50:18;;;;;;;7.75;5.90;;;;;;;13.73;52.68;94025.75;4973473;28;20041;-78
2021/09/04 03:52:44;;;;;;;6.88;5.78;;;;;;;13.61;53.03;94020.31;4976920;28;20014;-78
2021/09/04 03:55:09;;;;;;;8.15;5.32;;;;;;;13.51;52.89;94000.09;4975617;28;20038;-79
2021/09/04 03:57:35;;;;;;;8.93;4.70;;;;;;;13.54;52.97;94009.34;4973990;28;20494;-79
2021/09/04 04:00:01;;;;;;;9.30;5.18;;;;;;;13.60;53.07;94011.50;4973218;28;20046;-80
2021/09/04 04:02:26;;;;;;;6.38;5.43;;;;;;;13.58;52.80;94013.72;4974222;28;20322;-79
2021/09/04 04:04:51;;;;;;;10.05;6.40;;;;;;;13.68;52.54;94004.56;4975237;28;20038;-78
2021/09/04 04:07:17;;;;;;;8.65;6.40;;;;;;;13.62;52.96;93993.28;4975153;28;20679;-79
2021/09/04 04:09:44;;;;;;;10.60;6.75;;;;;;;13.66;52.41;93993.41;4973288;28;20093;-78
2021/09/04 04:12:10;;;;;;;12.63;8.52;;;;;;;13.67;52.30;93984.28;4975665;28;20035;-78
2021/09/04 04:14:35;;;;;;;13.88;9.63;;;;;;;13.61;53.07;93999.72;4971170;28;20034;-80
2021/09/04 04:17:01;;;;;;;12.40;8.77;;;;;;;13.45;53.30;93982.69;4977002;28;20434;-80
2021/09/04 04:19:27;;;;;;;12.48;9.07;;;;;;;13.59;53.11;94004.59;4972817;28;20043;-79
2021/09/04 04:21:52;;;;;;;11.40;9.13;;;;;;;13.82;52.25;93978.31;4972015;28;20035;-78
2021/09/04 04:24:18;;;;;;;10.68;7.00;;;;;;;14.02;52.38;94014.16;4976437;28;20039;-79
2021/09/04 04:26:43;;;;;;;8.77;7.18;;;;;;;14.07;52.32;94009.38;4973612;28;20038;-80
2021/09/04 04:29:08;;;;;;;11.85;7.95;;;;;;;14.25;52.26;94012.66;4972793;28;20503;-78
2021/09/04 04:31:35;;;;;;;9.45;7.82;;;;;;;14.32;52.45;94022.81;4974771;28;20034;-78
2021/09/04 04:34:01;;;;;;;9.63;7.78;;;;;;;14.35;52.66;94022.16;4976748;28;20046;-79
2021/09/04 04:36:26;;;;;;;16.55;7.72;;;;;;;14.39;52.21;94015.81;4972559;28;20113;-79
2021/09/04 04:38:51;;;;;;;11.75;8.00;;;;;;;14.48;52.11;94018.38;4973216;28;20061;-79
2021/09/04 04:41:17;;;;;;;10.95;8.65;;;;;;;14.50;52.53;94033.00;4970883;28;20038;-78
2021/09/04 04:43:42;;;;;;;10.55;7.60;;;;;;;14.58;52.51;94029.47;4971137;28;20121;-80
2021/09/04 04:46:07;;;;;;;12.20;8.23;;;;;;;14.58;52.36;94029.47;4973837;28;20105;-80
2021/09/04 04:48:33;;;;;;;11.32;7.78;;;;;;;14.64;52.52;94026.56;4973289;28;20034;-80
2021/09/04 04:50:59;;;;;;;10.23;8.15;;;;;;;14.58;52.62;94010.75;4978578;28;20042;-79
2021/09/04 04:53:24;;;;;;;11.45;8.38;;;;;;;14.64;52.38;94005.16;4977877;28;20062;-80
2021/09/04 04:55:50;;;;;;;9.50;7.60;;;;;;;14.97;51.78;94024.59;4980055;28;20939;-79
2021/09/04 04:58:15;;;;;;;10.55;8.65;;;;;;;14.96;51.58;94028.41;4977425;28;20042;-79
2021/09/04 05:00:41;;;;;;;10.98;8.40;;;;;;;14.99;51.49;94043.78;4975317;28;20042;-79
2021/09/04 05:03:06;;;;;;;11.63;9.82;;;;;;;15.11;50.64;94025.03;4980378;28;21408;-80
2021/09/04 05:05:34;;;;;;;12.30;8.85;;;;;;;15.10;50.73;94047.59;4971125;28;20034;-78
2021/09/04 05:07:59;;;;;;;13.23;9.23;;;;;;;14.93;50.94;94034.41;4979804;28;20589;-79
2021/09/04 05:10:24;;;;;;;13.32;8.40;;;;;;;15.07;50.80;94042.09;4977352;28;20387;-79
2021/09/04 05:12:50;;;;;;;11.10;8.50;;;;;;;14.94;50.97;94006.53;4976767;28;20038;-79
2021/09/04 05:15:15;;;;;;;11.40;8.45;;;;;;;15.11;50.65;94024.28;4978601;28;20504;-78
2021/09/04 05:17:40;;;;;;;14.77;9.60;;;;;;;15.12;50.60;94015.09;4978737;28;20041;-79
2021/09/04 05:20:07;;;;;;;13.43;10.07;;;;;;;15.39;50.67;94035.84;4975265;28;20109;-78
2021/09/04 05:22:32;;;;;;;12.43;9.73;;;;;;;15.49;49.65;94040.00;4977296;28;20501;-79
2021/09/04 05:24:58;;;;;;;14.23;9.30;;;;;;;15.47;50.12;94043.00;4977988;28;20096;-79
2021/09/04 05:27:23;;;;;;;14.60;10.73;;;;;;;15.39;49.95;94031.28;4974995;28;20217;-79
2021/09/04 05:29:49;;;;;;;18.33;10.30;;;;;;;15.51;50.20;94032.38;4976192;28;20113;-78
2021/09/04 05:32:21;;;;;;;12.85;9.77;;;;;;;15.54;50.20;94026.34;4977276;28;20477;-78
2021/09/04 05:34:47;;;;;;;11.55;9.55;;;;;;;15.40;50.37;94030.13;4973840;28;20147;-79
2021/09/04 05:37:12;;;;;;;15.63;9.65;;;;;;;15.56;50.23;94037.50;4974340;28;20122;-77
2021/09/04 05:39:37;;;;;;;11.70;8.95;;;;;;;15.71;49.50;94026.88;4975448;28;20034;-80
2021/09/04 05:42:03;;;;;;;17.23;8.73;;;;;;;15.84;49.49;94047.16;4973524;28;20043;-78
2021/09/04 05:44:28;;;;;;;11.52;8.23;;;;;;;15.97;48.76;94039.84;4980163;28;20038;-79
2021/09/04 05:46:53;;;;;;;10.35;8.20;;;;;;;15.96;48.55;94035.59;4976419;28;20370;-79
2021/09/04 05:49:19;;;;;;;13.38;8.60;;;;;;;15.39;49.04;94015.19;4975706;28;20125;-81
2021/09/04 05:51:44;;;;;;;14.43;8.70;;;;;;;15.61;49.34;94042.63;4975366;28;20050;-79
2021/09/04 05:54:09;;;;;;;11.45;8.75;;;;;;;15.64;49.71;94015.94;4977053;28;20591;-79
2021/09/04 05:56:35;;;;;;;14.07;8.63;;;;;;;16.07;48.65;94050.09;4977939;28;20042;-80
2021/09/04 05:59:00;;;;;;;14.68;8.82;;;;;;;16.09;48.48;94052.44;4973737;28;20557;-78
2021/09/04 06:01:26;;;;;;;10.95;8.48;;;;;;;16.13;48.56;94040.69;4975568;28;20046;-79
2021/09/04 06:03:51;;;;;;;13.65;9.13;;;;;;;16.11;47.97;94039.47;4975830;28;20699;-80
2021/09/04 06:06:16;;;;;;;11.75;9.43;;;;;;;15.99;48.62;94042.22;4977141;28;20097;-80
2021/09/04 06:08:42;;;;;;;17.42;11.50;;;;;;;16.19;48.19;94042.00;4977122;28;20030;-79
2021/09/04 06:11:07;;;;;;;19.73;13.32;;;;;;;16.15;48.58;94040.34;4971651;28;20050;-79
2021/09/04 06:13:33;;;;;;;12.93;9.95;;;;;;;16.33;48.30;94039.72;4976832;28;20026;-79
2021/09/04 06:15:58;;;;;;;10.10;8.10;;;;;;;16.25;48.28;94055.94;4972606;28;20145;-78
2021/09/04 06:18:23;;;;;;;13.05;9.55;;;;;;;16.53;47.82;94051.34;4976786;28;20035;-79
2021/09/04 06:20:49;;;;;;;15.07;9.80;;;;;;;16.48;47.71;94032.81;4976718;28;20038;-79
2021/09/04 06:23:14;;;;;;;13.02;9.80;;;;;;;16.44;47.88;94026.56;4977509;28;20461;-79
2021/09/04 06:25:40;;;;;;;14.15;8.73;;;;;;;16.46;47.67;94036.97;4974306;28;20650;-78
2021/09/04 06:28:05;;;;;;;10.15;8.98;;;;;;;16.60;47.27;94042.72;4978797;28;20049;-78
2021/09/04 06:30:31;;;;;;;13.80;9.35;;;;;;;16.68;48.06;94034.47;4974037;28;20043;-79
2021/09/04 06:32:56;;;;;;;10.02;7.93;;;;;;;16.83;46.23;94042.88;4977275;28;20130;-80
2021/09/04 06:35:22;;;;;;;16.98;9.05;;;;;;;16.84;47.16;94028.34;4975588;28;20798;-78
2021/09/04 06:37:47;;;;;;;17.30;9.73;;;;;;;16.83;46.83;94027.56;4973327;28;20061;-78
2021/09/04 06:40:12;;;;;;;13.43;9.02;;;;;;;16.70;47.00;94009.97;4976766;28;20034;-79
2021/09/04 06:42:38;;;;;;;18.13;9.55;;;;;;;16.89;46.70;94025.41;4971760;28;20523;-79
2021/09/04 06:45:04;;;;;;;15.90;11.07;;;;;;;17.01;47.37;94033.38;4976115;28;20042;-80
2021/09/04 06:47:30;;;;;;;20.92;10.88;;;;;;;17.12;47.10;94035.16;4971092;28;20587;-78
2021/09/04 06:49:55;;;;;;;20.58;11.88;;;;;;;17.13;46.58;94034.06;4977838;28;20034;-79
2021/09/04 06:52:21;;;;;;;15.93;10.63;;;;;;;17.03;47.01;94023.81;4976860;28;20044;-79
2021/09/04 06:54:46;;;;;;;14.48;11.60;;;;;;;17.15;46.96;94050.66;4975839;28;20061;-78
2021/09/04 06:57:11;;;;;;;21.90;13.15;;;;;;;17.12;46.72;94027.09;4974016;28;20069;-79
2021/09/04 06:59:37;;;;;;;19.60;12.35;;;;;;;17.24;46.82;94036.22;4974305;28;20042;-80
2021/09/04 07:02:02;;;;;;;19.30;12.48;;;;;;;17.33;46.49;94039.50;4976314;28;20405;-78
2021/09/04 07:04:28;;;;;;;18.00;11.30;;;;;;;17.62;46.15;94030.94;4974821;28;20060;-78
2021/09/04 07:06:53;;;;;;;19.15;12.70;;;;;;;17.84;45.44;94043.72;4974088;28;20034;-80
2021/09/04 07:09:19;;;;;;;17.58;12.48;;;;;;;17.85;44.87;94039.88;4972059;28;20575;-79
2021/09/04 07:11:44;;;;;;;23.13;13.52;;;;;;;17.65;44.96;94003.34;4976497;28;20038;-80
2021/09/04 07:14:09;;;;;;;19.75;12.55;;;;;;;17.66;44.83;94012.97;4969519;28;20026;-79
2021/09/04 07:16:35;;;;;;;14.07;12.27;;;;;;;17.28;46.27;94018.28;4973625;28;20035;-78
2021/09/04 07:19:00;;;;;;;14.82;12.18;;;;;;;17.41;46.45;94020.50;4976345;28;20590;-78
2021/09/04 07:21:26;;;;;;;17.55;11.57;;;;;;;17.68;46.16;94001.84;4972020;28;20061;-80
2021/09/04 07:23:51;;;;;;;19.52;11.68;;;;;;;17.98;45.83;94027.91;4973416;28;20077;-79
2021/09/04 07:26:16;;;;;;;17.20;10.27;;;;;;;18.17;45.82;94026.31;4973277;28;20022;-79
2021/09/04 07:28:42;;;;;;;13.77;10.63;;;;;;;18.22;45.32;94023.34;4972884;28;20034;-78
2021/09/04 07:31:07;;;;;;;22.95;11.52;;;;;;;18.20;44.73;94028.28;4974089;28;20050;-77
2021/09/04 07:33:33;;;;;;;15.57;11.93;;;;;;;18.46;43.99;94020.34;4976285;28;20527;-78
2021/09/04 07:35:58;;;;;;;14.88;11.43;;;;;;;18.46;44.27;94013.03;4974294;28;20128;-78
2021/09/04 07:38:24;;;;;;;19.02;10.60;;;;;;;18.59;43.84;94034.41;4973663;28;21383;-80
2021/09/04 07:40:50;;;;;;;15.63;11.88;;;;;;;18.51;43.99;94028.13;4973946;28;20551;-78
2021/09/04 07:43:16;;;;;;;17.50;12.00;;;;;;;18.51;43.31;94028.13;4985676;28;20050;-78
2021/09/04 07:45:41;;;;;;;16.40;11.48;;;;;;;18.58;43.29;94047.09;4975802;28;20445;-79
2021/09/04 07:48:07;;;;;;;15.07;10.90;;;;;;;18.54;42.91;94046.25;4975156;28;20030;-79
2021/09/04 07:50:33;;;;;;;11.85;9.98;;;;;;;18.55;43.44;94042.44;4991383;28;20035;-78
2021/09/04 07:52:59;;;;;;;13.73;9.98;;;;;;;18.71;43.44;94045.84;4977194;28;20038;-80
2021/09/04 07:55:25;;;;;;;13.13;9.57;;;;;;;18.65;43.29;94032.97;4973025;28;20034;-78
2021/09/04 07:57:50;;;;;;;14.93;9.80;;;;;;;18.71;43.22;94031.59;4974938;28;20088;-78
2021/09/04 08:00:16;;;;;;;16.13;9.88;;;;;;;18.78;42.63;94037.06;4975350;28;20674;-78
2021/09/04 08:02:41;;;;;;;16.83;10.63;;;;;;;18.78;42.61;94037.84;4973065;28;20050;-79
2021/09/04 08:05:08;;;;;;;15.75;9.35;;;;;;;18.82;42.73;94021.78;4971266;28;20493;-79
2021/09/04 08:07:33;;;;;;;12.98;9.05;;;;;;;18.96;42.61;94045.47;4968576;28;20721;-79
2021/09/04 08:09:59;;;;;;;14.98;9.68;;;;;;;18.70;42.54;93985.00;4972108;28;20059;-78
2021/09/04 08:12:24;;;;;;;11.10;8.40;;;;;;;19.18;42.76;94056.22;4967617;28;20042;-79
2021/09/04 08:14:50;;;;;;;16.40;9.18;;;;;;;19.33;42.39;94041.06;4984081;28;20110;-78
2021/09/04 08:17:15;;;;;;;10.68;8.82;;;;;;;19.06;41.90;94034.09;4975268;28;20051;-80
2021/09/04 08:19:41;;;;;;;12.20;8.90;;;;;;;19.32;41.63;94055.66;4967520;28;20106;-78
2021/09/04 08:22:06;;;;;;;10.50;8.10;;;;;;;19.35;41.23;94057.66;4969459;28;20136;-79
2021/09/04 08:24:33;;;;;;;10.43;8.32;;;;;;;19.35;41.54;94032.59;4969453;28;20049;-79
2021/09/04 08:26:59;;;;;;;22.13;8.98;;;;;;;19.43;40.81;94053.91;4974827;28;20034;-78
2021/09/04 08:29:25;;;;;;;12.27;8.13;;;;;;;19.39;41.60;94023.44;4973041;28;20657;-77
2021/09/04 08:31:50;;;;;;;12.00;8.48;;;;;;;19.64;41.60;94051.56;4973838;28;20038;-80
2021/09/04 08:34:16;;;;;;;11.27;8.45;;;;;;;19.60;40.72;94042.63;4977851;28;20054;-79
2021/09/04 08:36:41;;;;;;;12.00;8.50;;;;;;;19.46;41.38;94031.63;4979539;28;20049;-80
2021/09/04 08:39:07;;;;;;;13.27;9.02;;;;;;;19.54;41.06;94046.81;4973001;28;20085;-79
2021/09/04 08:41:35;;;;;;;13.35;8.32;;;;;;;19.72;40.81;94060.53;4977606;28;20054;-81
2021/09/04 08:44:02;;;;;;;13.07;9.10;;;;;;;19.52;40.48;94059.09;4978759;28;20161;-78
2021/09/04 08:46:32;;;;;;;10.43;9.23;;;;;;;19.57;40.89;94054.16;4975939;28;20341;-78
2021/09/04 08:48:59;;;;;;;13.95;9.88;;;;;;;19.65;40.41;94060.44;4978625;28;20563;-78
2021/09/04 08:51:25;;;;;;;15.27;9.48;;;;;;;19.57;41.57;94037.97;4977636;28;20120;-78
2021/09/04 08:53:50;;;;;;;12.02;9.32;;;;;;;19.71;40.57;94040.09;4965488;28;20060;-78
2021/09/04 08:56:16;;;;;;;15.23;9.93;;;;;;;19.67;41.10;94058.94;4974348;28;20038;-79
2021/09/04 08:58:41;;;;;;;12.63;8.48;;;;;;;19.81;41.12;94054.88;4976887;28;20068;-80
2021/09/04 09:01:17;;;;;;;11.07;7.88;;;;;;;19.88;39.99;94055.75;4980090;28;20062;-78
2021/09/04 09:03:44;;;;;;;15.55;8.55;;;;;;;19.84;40.72;94046.06;4977394;28;20512;-80
2021/09/04 09:06:10;;;;;;;11.32;8.02;;;;;;;19.68;41.67;94046.22;4923136;28;20838;-81
2021/09/04 09:08:41;;;;;;;8.80;7.93;;;;;;;19.80;40.64;94045.97;4972576;28;20034;-78
2021/09/04 09:11:08;;;;;;;9.75;7.95;;;;;;;19.75;40.74;94025.50;4979090;28;20042;-78
2021/09/04 09:13:46;;;;;;;9.27;8.00;;;;;;;19.78;40.58;94044.81;4972845;28;20534;-80
2021/09/04 09:16:16;;;;;;;10.27;8.50;;;;;;;19.91;39.63;94054.22;4993409;28;20381;-78
2021/09/04 09:18:54;;;;;;;10.73;7.90;;;;;;;19.63;40.61;94028.44;4973804;28;20038;-79
2021/09/04 09:21:20;;;;;;;9.52;7.63;;;;;;;19.77;40.45;94037.84;4974590;28;20539;-78
2021/09/04 09:23:46;;;;;;;9.30;7.10;;;;;;;19.93;39.81;94030.34;4978649;28;20037;-79
2021/09/04 09:26:11;;;;;;;10.50;7.68;;;;;;;20.06;41.02;94028.97;4976722;28;20695;-79
2021/09/04 09:28:38;;;;;;;10.18;7.28;;;;;;;20.22;39.66;94026.88;4980276;28;20035;-78
2021/09/04 09:31:03;;;;;;;10.95;7.22;;;;;;;20.24;39.27;94016.47;4992366;28;20046;-78
2021/09/04 09:33:31;;;;;;;13.00;7.15;;;;;;;20.21;39.42;94014.53;4969331;28;20101;-78
2021/09/04 09:35:58;;;;;;;12.40;6.93;;;;;;;20.37;39.26;94022.41;4976640;28;20038;-80
2021/09/04 09:38:26;;;;;;;8.85;7.28;;;;;;;20.39;39.42;94003.91;4972314;28;20097;-79
2021/09/04 09:40:54;;;;;;;10.77;7.43;;;;;;;20.39;38.57;93993.88;4979058;28;20135;-80
2021/09/04 09:43:24;;;;;;;7.20;6.13;;;;;;;20.69;38.81;94007.28;4974190;28;20050;-78
2021/09/04 09:45:51;;;;;;;11.98;8.35;;;;;;;20.58;38.57;94007.19;4976858;28;20057;-78
2021/09/04 09:48:27;;;;;;;8.43;6.97;;;;;;;20.66;39.05;93986.44;4971396;28;20137;-79
2021/09/04 09:50:53;;;;;;;9.30;5.95;;;;;;;20.88;39.32;93982.78;4971630;28;20042;-78
2021/09/04 09:53:20;;;;;;;7.80;6.35;;;;;;;20.91;38.11;93978.56;4970032;28;20036;-79
2021/09/04 09:55:48;;;;;;;7.88;5.63;;;;;;;21.03;37.70;93972.84;4964572;28;20035;-79
2021/09/04 09:58:15;;;;;;;9.77;6.95;;;;;;;20.94;37.83;93969.69;4981395;28;20436;-78
2021/09/04 10:00:42;;;;;;;9.68;7.35;;;;;;;21.05;37.85;93973.25;4960568;28;20100;-77
2021/09/04 10:03:10;;;;;;;10.05;6.43;;;;;;;21.20;38.21;93983.03;4966527;28;20043;-78
2021/09/04 10:05:36;;;;;;;10.48;6.82;;;;;;;21.26;37.20;93978.06;4967948;28;20180;-78
2021/09/04 10:08:02;;;;;;;8.60;6.97;;;;;;;21.32;38.68;93973.81;4968112;28;20396;-80
2021/09/04 10:10:31;;;;;;;12.13;6.50;;;;;;;21.12;37.42;93964.44;4962853;28;20071;-79
2021/09/04 10:12:57;;;;;;;11.63;6.75;;;;;;;21.11;37.13;93966.38;4964576;28;20034;-78
2021/09/04 10:15:27;;;;;;;11.13;6.63;;;;;;;21.15;36.74;93972.56;4964725;28;21120;-78
2021/09/04 10:17:56;;;;;;;11.30;6.32;;;;;;;21.20;37.92;93950.59;4966984;28;20627;-78
2021/09/04 10:20:23;;;;;;;11.85;6.28;;;;;;;21.23;37.24;93960.63;4965201;28;20068;-78
2021/09/04 10:22:49;;;;;;;8.15;5.63;;;;;;;20.97;36.99;93956.19;4966303;28;20038;-78
2021/09/04 10:25:19;;;;;;;9.85;6.50;;;;;;;20.95;37.08;93965.84;4964281;28;20031;-78
2021/09/04 10:27:47;;;;;;;7.38;6.10;;;;;;;20.96;37.29;93940.38;4968292;28;20503;-77
2021/09/04 10:30:39;;;;;;;12.18;7.00;;;;;;;21.14;37.46;93962.91;4967964;28;20871;-79
2021/09/04 10:33:08;;;;;;;7.78;5.93;;;;;;;21.24;37.42;93958.72;4983361;28;20125;-78
2021/09/04 10:35:50;;;;;;;7.90;6.45;;;;;;;21.35;37.56;93943.31;4961338;28;20523;-79
2021/09/04 10:38:19;;;;;;;12.50;6.93;;;;;;;21.53;39.46;93940.72;4960580;28;20065;-79
2021/09/04 10:40:45;;;;;;;12.38;6.57;;;;;;;21.49;38.49;93934.50;4967692;28;20036;-78
2021/09/04 10:43:13;;;;;;;8.52;6.03;;;;;;;21.45;36.00;93927.16;4962182;28;20038;-79
2021/09/04 10:45:38;;;;;;;8.13;5.88;;;;;;;21.48;36.10;93927.53;4965153;28;20037;-79
2021/09/04 10:48:14;;;;;;;13.85;7.97;;;;;;;21.61;37.31;93934.22;4966784;28;20039;-79
2021/09/04 10:50:41;;;;;;;6.68;5.28;;;;;;;21.71;36.83;93936.97;4967774;28;20116;-78
2021/09/04 10:53:09;;;;;;;7.07;5.47;;;;;;;21.59;36.14;93923.00;4962189;28;20036;-79
2021/09/04 10:55:37;;;;;;;10.77;5.95;;;;;;;21.66;35.00;93929.19;4961652;28;20168;-79
2021/09/04 10:58:12;;;;;;;8.88;5.55;;;;;;;21.61;35.48;93928.81;4977898;28;20042;-78
2021/09/04 11:00:43;;;;;;;6.53;5.50;;;;;;;21.77;35.74;93934.66;4960155;28;20074;-79
2021/09/04 11:03:17;;;;;;;7.07;5.65;;;;;;;21.65;35.57;93911.44;4967102;28;20566;-78
2021/09/04 11:06:05;;;;;;;6.80;5.40;;;;;;;21.91;36.12;93944.75;4967769;28;20093;-79
2021/09/04 11:08:42;;;;;;;6.95;5.40;;;;;;;21.92;35.67;93935.50;4983317;28;20038;-79
2021/09/04 11:11:17;;;;;;;8.43;6.43;;;;;;;21.96;36.04;93941.69;4964437;28;20501;-79
2021/09/04 11:13:54;;;;;;;6.88;5.75;;;;;;;21.95;35.55;93935.50;4963761;28;20058;-78
2021/09/04 11:16:42;;;;;;;5.90;5.28;;;;;;;22.09;34.40;93937.50;4965852;28;20932;-78
2021/09/04 11:19:13;;;;;;;6.22;5.18;;;;;;;22.00;34.44;93927.00;4963038;28;20861;-79
2021/09/04 11:22:06;;;;;;;6.22;5.10;;;;;;;22.03;35.37;93926.25;4979133;28;20042;-79
2021/09/04 11:24:41;;;;;;;6.40;5.32;;;;;;;22.15;35.00;93931.31;4963179;28;20089;-78
2021/09/04 11:27:10;;;;;;;6.90;6.15;;;;;;;22.17;34.65;93929.00;4960981;28;20030;-79